Time;durP1;ratioP1;P1;durP2;ratioP2;P2;SDS_P1;SDS_P2;PMS_P1;PMS_P2;Temp;Humidity;BMP_temperature;BMP_pressure;BME280_temperature;BME280_humidity;BME280_pressure;Samples;Min_cycle;Max_cycle;Signal;HPM_P1;HPM_P2
2023/08/28 04:09:00;;;;;;;6.25;5.40;;;;;;;21.13;100.00;99484.09;5278219;28;20141;-85
2023/08/28 04:12:04;;;;;;;6.32;4.50;;;;;;;21.08;100.00;99483.25;5243454;33;33427;-84
2023/08/28 04:15:10;;;;;;;7.85;5.25;;;;;;;21.11;100.00;99486.28;5248625;33;33285;-85
2023/08/28 04:18:13;;;;;;;6.00;4.47;;;;;;;21.05;100.00;99485.44;5258673;33;33258;-85
2023/08/28 04:21:16;;;;;;;6.50;4.80;;;;;;;21.08;100.00;99492.28;5235507;33;35109;-85
2023/08/28 04:24:19;;;;;;;5.62;4.90;;;;;;;21.07;100.00;99487.91;5248543;33;33283;-85
2023/08/28 04:27:25;;;;;;;7.10;5.07;;;;;;;21.04;100.00;99483.78;5256434;33;33692;-85
2023/08/28 04:30:28;;;;;;;6.62;4.90;;;;;;;21.03;100.00;99482.16;5262554;33;34903;-85
2023/08/28 04:33:31;;;;;;;6.95;4.40;;;;;;;21.04;100.00;99488.44;5268218;33;33471;-84
2023/08/28 04:36:34;;;;;;;4.40;3.70;;;;;;;21.06;100.00;99487.09;5262281;33;33278;-85
2023/08/28 04:39:36;;;;;;;7.70;4.47;;;;;;;21.14;100.00;99493.94;5251787;33;33343;-85
2023/08/28 04:42:39;;;;;;;7.90;5.10;;;;;;;21.20;100.00;99486.56;5231482;33;32894;-84
2023/08/28 04:45:42;;;;;;;8.38;4.97;;;;;;;21.25;100.00;99486.59;5237247;33;34125;-85
2023/08/28 04:48:45;;;;;;;6.07;4.37;;;;;;;21.27;100.00;99473.47;5231395;33;33284;-85
2023/08/28 04:51:48;;;;;;;10.27;5.25;;;;;;;21.29;100.00;99476.72;5231573;33;33119;-85
2023/08/28 04:54:51;;;;;;;6.40;4.20;;;;;;;21.35;100.00;99472.91;5243034;33;33588;-85
2023/08/28 04:57:54;;;;;;;5.72;4.37;;;;;;;21.42;100.00;99462.56;5242923;33;34612;-85
2023/08/28 05:00:57;;;;;;;6.55;4.75;;;;;;;21.51;100.00;99460.91;5231631;33;33036;-85
2023/08/28 05:04:00;;;;;;;8.27;5.43;;;;;;;21.56;100.00;99462.84;5231107;33;33165;-88
2023/08/28 05:07:05;;;;;;;7.03;4.72;;;;;;;21.70;100.00;99457.63;5255557;33;34278;-89
2023/08/28 05:10:09;;;;;;;6.70;5.20;;;;;;;21.82;100.00;99463.69;5225916;34;34526;-89
2023/08/28 05:13:13;;;;;;;5.80;4.50;;;;;;;21.93;100.00;99453.53;5238010;34;33034;-85
2023/08/28 05:16:15;;;;;;;6.28;4.85;;;;;;;22.05;100.00;99461.47;5220663;34;33333;-85
2023/08/28 05:19:18;;;;;;;5.43;4.50;;;;;;;22.30;100.00;99444.19;5208412;34;33397;-85
2023/08/28 05:22:21;;;;;;;8.68;4.93;;;;;;;22.53;100.00;99435.34;5197143;34;33375;-85
2023/08/28 05:25:25;;;;;;;8.57;5.18;;;;;;;22.71;100.00;99435.81;5221138;34;34225;-85
2023/08/28 05:28:31;;;;;;;9.35;5.65;;;;;;;22.95;100.00;99436.81;5208395;34;34401;-85
2023/08/28 05:31:33;;;;;;;8.68;4.95;;;;;;;23.13;100.00;99435.34;5197861;34;33286;-85
2023/08/28 05:34:36;;;;;;;11.68;6.07;;;;;;;23.33;100.00;99437.13;5253604;33;34011;-85
2023/08/28 05:37:40;;;;;;;7.97;5.35;;;;;;;23.41;100.00;99447.53;5245501;33;33315;-85
2023/08/28 05:40:43;;;;;;;8.82;5.90;;;;;;;23.54;100.00;99444.13;5228272;33;33236;-85
2023/08/28 05:43:46;;;;;;;7.90;5.78;;;;;;;23.66;100.00;99449.25;5245716;33;33351;-85
2023/08/28 05:46:48;;;;;;;9.68;5.22;;;;;;;23.66;100.00;99448.44;5226678;33;33277;-85
2023/08/28 05:49:53;;;;;;;7.85;5.18;;;;;;;23.52;100.00;99448.28;5219019;34;33268;-85
2023/08/28 05:52:56;;;;;;;8.18;5.50;;;;;;;23.66;100.00;99440.19;5244061;34;33581;-85
2023/08/28 05:55:59;;;;;;;9.20;5.70;;;;;;;23.71;100.00;99430.00;5227510;33;32980;-85
2023/08/28 05:59:01;;;;;;;7.87;5.28;;;;;;;23.84;100.00;99428.53;5213875;34;34313;-85
2023/08/28 06:02:05;;;;;;;6.70;5.20;;;;;;;23.92;100.00;99429.81;5223304;34;33199;-84
2023/08/28 06:05:08;;;;;;;5.55;4.28;;;;;;;24.17;100.00;99417.75;5237273;34;31862;-85
2023/08/28 06:08:11;;;;;;;7.47;5.10;;;;;;;24.25;100.00;99414.37;5237556;34;34869;-85
2023/08/28 06:11:14;;;;;;;6.57;5.57;;;;;;;24.36;100.00;99418.62;5236343;33;32773;-85
2023/08/28 06:14:17;;;;;;;7.05;5.35;;;;;;;24.32;100.00;99419.53;5239787;33;33114;-85
2023/08/28 06:17:23;;;;;;;7.82;5.90;;;;;;;24.47;100.00;99421.31;5227312;34;33704;-84
2023/08/28 06:20:26;;;;;;;11.07;6.10;;;;;;;24.64;100.00;99425.22;5227984;34;33517;-85
2023/08/28 06:23:30;;;;;;;8.60;6.03;;;;;;;24.75;100.00;99425.91;5228500;34;34721;-85
2023/08/28 06:26:32;;;;;;;8.07;6.22;;;;;;;24.94;100.00;99423.16;5238780;34;33357;-85
2023/08/28 06:29:36;;;;;;;8.40;5.85;;;;;;;25.02;100.00;99418.94;5224825;34;33274;-85
2023/08/28 06:32:40;;;;;;;10.23;6.30;;;;;;;25.03;100.00;99420.56;5217382;33;34162;-85
2023/08/28 06:35:43;;;;;;;8.57;5.93;;;;;;;24.93;100.00;99418.78;5236706;33;34278;-85
2023/08/28 06:38:48;;;;;;;10.23;6.47;;;;;;;24.93;100.00;99416.03;5237716;34;33285;-85
2023/08/28 06:41:51;;;;;;;10.32;6.37;;;;;;;24.91;100.00;99407.25;5244373;33;34969;-85
2023/08/28 06:44:55;;;;;;;9.05;6.22;;;;;;;24.75;100.00;99411.34;5238808;34;34831;-85
2023/08/28 06:48:01;;;;;;;8.45;6.30;;;;;;;24.92;100.00;99413.56;5235278;33;33689;-85
2023/08/28 06:51:03;;;;;;;9.18;6.07;;;;;;;24.93;100.00;99405.03;5196946;34;33581;-85
2023/08/28 06:54:07;;;;;;;8.27;6.20;;;;;;;25.02;100.00;99406.00;5196564;34;33496;-85
2023/08/28 06:57:09;;;;;;;9.68;6.35;;;;;;;25.18;100.00;99398.34;5218625;34;32984;-84
2023/08/28 07:00:13;;;;;;;7.80;5.97;;;;;;;25.36;100.00;99388.44;5218955;34;33882;-85
2023/08/28 07:03:15;;;;;;;10.55;6.40;;;;;;;25.51;100.00;99388.19;5204333;34;33341;-85
2023/08/28 07:06:18;;;;;;;7.80;6.50;;;;;;;25.70;97.58;99390.87;5211142;33;34368;-85
2023/08/28 07:09:21;;;;;;;10.68;6.37;;;;;;;25.72;98.95;99387.84;5219158;34;33859;-85
2023/08/28 07:12:24;;;;;;;10.45;6.15;;;;;;;25.92;97.89;99394.97;5202946;34;33761;-85
2023/08/28 07:15:29;;;;;;;13.38;6.12;;;;;;;26.16;98.50;99386.50;5211709;34;33352;-84
2023/08/28 07:18:32;;;;;;;9.85;5.85;;;;;;;26.11;97.29;99392.13;5232758;33;33235;-88
2023/08/28 07:21:35;;;;;;;11.38;6.43;;;;;;;26.20;96.61;99379.25;5235485;34;33668;-88
2023/08/28 07:24:38;;;;;;;10.70;6.50;;;;;;;26.43;97.74;99374.66;5244798;33;33919;-89
2023/08/28 07:27:41;;;;;;;10.82;6.62;;;;;;;26.70;94.16;99368.31;5235982;33;32947;-88
2023/08/28 07:30:44;;;;;;;9.27;5.90;;;;;;;26.84;94.57;99355.28;5224197;34;33259;-85
2023/08/28 07:33:46;;;;;;;8.95;5.90;;;;;;;26.90;93.22;99356.78;5238638;33;34104;-85
2023/08/28 07:36:51;;;;;;;8.98;6.15;;;;;;;27.19;92.15;99352.03;5233399;34;33443;-85
2023/08/28 07:39:54;;;;;;;11.05;6.78;;;;;;;27.39;91.18;99354.28;5234417;34;33389;-85
2023/08/28 07:42:57;;;;;;;7.68;6.03;;;;;;;27.50;90.41;99349.34;5222879;34;32901;-85
2023/08/28 07:45:59;;;;;;;11.93;6.55;;;;;;;27.59;89.73;99339.13;5223224;34;33019;-85
2023/08/28 07:49:04;;;;;;;8.63;6.00;;;;;;;27.78;88.47;99342.50;5223556;34;34852;-85
2023/08/28 07:52:06;;;;;;;10.38;5.85;;;;;;;27.95;87.82;99343.75;5236620;34;33560;-85
2023/08/28 07:55:09;;;;;;;8.63;6.03;;;;;;;27.47;87.76;99348.00;5235793;34;33426;-85
2023/08/28 07:58:12;;;;;;;10.52;6.47;;;;;;;27.77;87.72;99351.94;5222131;34;33722;-85
2023/08/28 08:01:15;;;;;;;10.57;6.65;;;;;;;28.01;86.01;99350.75;5209211;34;34010;-85
2023/08/28 08:04:18;;;;;;;10.52;6.30;;;;;;;28.20;86.76;99356.06;5223248;34;33313;-85
2023/08/28 08:07:21;;;;;;;10.23;6.62;;;;;;;28.15;84.31;99356.19;5213363;34;33492;-85
2023/08/28 08:10:24;;;;;;;8.73;6.43;;;;;;;28.36;84.99;99357.25;5212569;34;34250;-85
2023/08/28 08:13:26;;;;;;;9.65;6.35;;;;;;;28.35;85.15;99354.81;5238611;34;34464;-85
2023/08/28 08:16:29;;;;;;;11.82;6.25;;;;;;;28.29;84.64;99359.69;5214739;34;33577;-85
2023/08/28 08:19:33;;;;;;;8.00;6.45;;;;;;;28.23;85.57;99359.00;5216052;34;33559;-85
2023/08/28 08:22:40;;;;;;;10.77;6.22;;;;;;;28.45;85.63;99346.22;5237897;34;33019;-85
2023/08/28 08:25:43;;;;;;;10.35;6.07;;;;;;;28.37;83.41;99333.13;5226527;34;33874;-85
2023/08/28 08:28:46;;;;;;;10.05;6.32;;;;;;;28.41;83.56;99332.22;5235765;34;33799;-85
2023/08/28 08:31:50;;;;;;;7.65;6.28;;;;;;;28.26;85.30;99327.91;5199999;34;33548;-85
2023/08/28 08:34:56;;;;;;;9.45;6.32;;;;;;;28.26;86.17;99313.25;5211529;34;34079;-85
2023/08/28 08:37:59;;;;;;;10.60;6.43;;;;;;;28.22;85.85;99312.25;5237941;34;31996;-85
2023/08/28 08:41:02;;;;;;;11.60;6.62;;;;;;;28.25;85.60;99315.19;5214412;33;33873;-85
2023/08/28 08:44:05;;;;;;;10.70;6.75;;;;;;;28.39;84.87;99303.19;5237998;34;33738;-85
2023/08/28 08:47:11;;;;;;;11.07;6.78;;;;;;;28.67;82.98;99298.22;5225636;34;34685;-85
2023/08/28 08:50:18;;;;;;;10.52;7.28;;;;;;;28.81;82.56;99289.72;5236991;33;33462;-83
2023/08/28 08:53:59;;;;;;;10.07;6.73;;;;;;;28.83;81.26;99279.94;5237590;33;33515;-83
2023/08/28 08:57:26;;;;;;;8.75;6.47;;;;;;;29.06;81.45;99283.41;5236832;34;34151;-83
2023/08/28 09:00:29;;;;;;;11.98;7.05;;;;;;;29.51;78.01;99277.41;5245444;33;33139;-83
2023/08/28 09:03:32;;;;;;;12.95;7.43;;;;;;;29.69;78.21;99282.94;5212563;34;33164;-84
2023/08/28 09:06:37;;;;;;;9.43;6.10;;;;;;;29.83;78.99;99286.31;5237618;33;33617;-83
2023/08/28 09:09:40;;;;;;;13.18;7.03;;;;;;;30.08;76.03;99289.31;5237341;34;34243;-83
2023/08/28 09:12:45;;;;;;;9.60;6.50;;;;;;;29.85;75.01;99295.13;5237368;34;35099;-85
2023/08/28 09:15:48;;;;;;;7.72;6.62;;;;;;;29.98;76.10;99283.00;5228905;33;33481;-85
2023/08/28 09:18:52;;;;;;;11.45;7.35;;;;;;;30.36;74.50;99275.78;5225875;33;33324;-85
2023/08/28 09:21:55;;;;;;;11.23;7.40;;;;;;;30.65;72.49;99277.69;5237123;33;33082;-84
2023/08/28 09:24:58;;;;;;;12.32;7.00;;;;;;;30.63;71.79;99275.25;5213386;34;34068;-83
2023/08/28 09:28:01;;;;;;;13.18;6.87;;;;;;;30.68;73.04;99282.56;5224987;33;32319;-83
2023/08/28 09:31:04;;;;;;;18.77;7.25;;;;;;;31.17;71.69;99278.06;5239094;34;34949;-85
2023/08/28 09:34:07;;;;;;;15.52;7.30;;;;;;;31.17;70.87;99286.41;5238632;34;33226;-85
2023/08/28 09:37:12;;;;;;;10.55;7.00;;;;;;;31.38;69.31;99271.66;5238578;34;34091;-85
2023/08/28 09:40:25;;;;;;;14.02;7.18;;;;;;;30.99;70.02;99278.59;5238833;34;34112;-87
2023/08/28 09:43:28;;;;;;;13.23;7.05;;;;;;;31.17;69.41;99271.69;5226185;34;34149;-85
2023/08/28 09:46:31;;;;;;;11.95;6.37;;;;;;;31.49;67.28;99272.84;5235094;34;33619;-85
2023/08/28 09:49:42;;;;;;;12.88;7.62;;;;;;;31.63;67.11;99262.22;5223566;34;32913;-84
2023/08/28 09:52:45;;;;;;;9.25;6.95;;;;;;;32.05;68.42;99248.09;5238083;33;33460;-84
2023/08/28 09:55:53;;;;;;;11.88;6.87;;;;;;;32.44;64.51;99253.25;5232195;34;33423;-85
2023/08/28 09:58:57;;;;;;;8.80;6.80;;;;;;;32.39;65.57;99245.97;5243832;33;33231;-85
2023/08/28 10:02:00;;;;;;;8.82;6.87;;;;;;;32.28;64.49;99242.84;5236878;33;33350;-86
2023/08/28 10:05:23;;;;;;;9.50;6.22;;;;;;;32.61;65.61;99239.06;5217524;34;33296;-85
2023/08/28 10:08:31;;;;;;;12.27;6.60;;;;;;;32.94;62.70;99240.84;5224474;34;34355;-86
2023/08/28 10:11:39;;;;;;;9.35;6.10;;;;;;;33.16;61.39;99236.69;5225044;34;33423;-85
2023/08/28 10:14:44;;;;;;;10.75;6.35;;;;;;;33.25;57.83;99225.34;5237467;33;33299;-85
2023/08/28 10:17:49;;;;;;;9.05;6.03;;;;;;;33.14;57.40;99219.47;5250652;34;33366;-85
2023/08/28 10:20:53;;;;;;;7.78;5.55;;;;;;;33.48;54.46;99215.19;5250615;34;33638;-88
2023/08/28 10:23:57;;;;;;;11.00;5.72;;;;;;;33.55;52.62;99209.00;5227646;34;33700;-90
2023/08/28 10:27:00;;;;;;;10.73;6.07;;;;;;;33.83;52.83;99208.91;5228649;34;33060;-85
2023/08/28 10:30:04;;;;;;;10.93;5.55;;;;;;;34.01;50.86;99200.94;5225281;33;33429;-86
2023/08/28 10:33:12;;;;;;;9.00;5.20;;;;;;;34.14;51.76;99184.87;5223696;34;33596;-86
2023/08/28 10:36:17;;;;;;;9.90;5.45;;;;;;;34.17;49.93;99179.41;5231353;34;32980;-85
2023/08/28 10:39:43;;;;;;;8.23;5.28;;;;;;;34.17;51.89;99179.41;5236486;34;33248;-85
2023/08/28 10:42:47;;;;;;;13.38;5.10;;;;;;;34.59;49.22;99178.72;5225371;33;33004;-86
2023/08/28 10:45:52;;;;;;;10.68;5.75;;;;;;;34.62;50.28;99177.97;5233780;33;33107;-85
2023/08/28 10:48:59;;;;;;;9.02;5.18;;;;;;;35.10;47.66;99175.75;5227345;34;33322;-86
2023/08/28 10:52:06;;;;;;;9.27;5.35;;;;;;;35.01;48.79;99166.72;5231016;34;33013;-85
2023/08/28 10:55:09;;;;;;;6.40;4.82;;;;;;;35.47;47.34;99163.97;5236354;33;33352;-85
2023/08/28 10:58:12;;;;;;;9.18;5.22;;;;;;;35.37;47.30;99162.59;5211619;33;33314;-86
2023/08/28 11:01:17;;;;;;;6.60;5.22;;;;;;;35.69;45.25;99162.34;5211708;34;32908;-85
2023/08/28 11:04:21;;;;;;;10.77;5.47;;;;;;;36.06;43.22;99153.28;5227639;34;33688;-84
2023/08/28 11:07:30;;;;;;;11.82;5.45;;;;;;;35.74;43.74;99153.59;5224607;34;34559;-85
2023/08/28 11:10:35;;;;;;;5.32;4.75;;;;;;;36.15;41.48;99151.00;5237819;34;33189;-84
2023/08/28 11:13:38;;;;;;;6.43;4.65;;;;;;;36.62;40.50;99163.63;5236171;34;32955;-85
2023/08/28 11:16:41;;;;;;;11.23;5.15;;;;;;;37.29;39.51;99156.34;5224811;34;33620;-85
2023/08/28 11:19:56;;;;;;;8.20;4.30;;;;;;;36.95;37.82;99160.00;5235992;34;34791;-85
2023/08/28 11:23:01;;;;;;;6.25;4.65;;;;;;;37.71;35.70;99157.91;5237185;34;34226;-85
2023/08/28 11:26:17;;;;;;;5.95;4.47;;;;;;;38.13;34.30;99156.59;5224673;34;32794;-85
2023/08/28 11:29:27;;;;;;;8.50;4.45;;;;;;;38.18;33.87;99147.78;5237065;34;33324;-85
2023/08/28 11:32:30;;;;;;;8.85;4.80;;;;;;;38.16;35.19;99148.16;5218996;34;33551;-85
2023/08/28 11:35:35;;;;;;;8.73;4.57;;;;;;;38.13;33.59;99148.16;5207861;34;33514;-86
2023/08/28 11:38:40;;;;;;;6.82;4.50;;;;;;;38.76;32.74;99127.13;5208915;34;33614;-89
2023/08/28 11:41:43;;;;;;;7.43;4.60;;;;;;;39.49;30.79;99128.81;5219586;34;33547;-89
2023/08/28 11:44:48;;;;;;;9.85;4.65;;;;;;;40.48;29.84;99124.94;5207163;34;33572;-90
2023/08/28 11:47:50;;;;;;;6.75;4.43;;;;;;;40.84;29.46;99126.78;5222505;34;33290;-87
2023/08/28 11:51:04;;;;;;;9.52;4.50;;;;;;;41.72;27.82;99118.81;5206996;34;33792;-86
2023/08/28 11:54:07;;;;;;;8.13;4.43;;;;;;;43.38;26.81;99115.41;5219119;34;33505;-86
2023/08/28 11:57:11;;;;;;;5.55;4.20;;;;;;;44.28;25.30;99115.31;5206802;34;33797;-85
2023/08/28 12:00:16;;;;;;;7.82;3.87;;;;;;;44.91;23.39;99111.53;5227815;34;33098;-85
2023/08/28 12:03:19;;;;;;;5.95;4.00;;;;;;;44.86;22.73;99111.25;5223865;34;33400;-86
2023/08/28 12:06:22;;;;;;;6.87;4.22;;;;;;;45.77;22.42;99103.66;5235668;34;33163;-85
2023/08/28 12:09:26;;;;;;;6.70;3.90;;;;;;;45.37;21.82;99103.91;5210702;34;33549;-85
2023/08/28 12:12:29;;;;;;;5.72;4.00;;;;;;;45.66;22.39;99091.78;5237797;34;33217;-85
2023/08/28 12:15:33;;;;;;;6.70;4.22;;;;;;;46.27;20.61;99090.03;5226890;34;33293;-86
2023/08/28 12:18:52;;;;;;;4.80;3.30;;;;;;;46.95;20.61;99091.59;5227708;34;33223;-85
2023/08/28 12:22:05;;;;;;;6.80;3.60;;;;;;;47.07;20.22;99097.75;5240527;34;34544;-86
2023/08/28 12:25:08;;;;;;;4.93;3.92;;;;;;;48.15;19.00;99081.31;5227615;34;33200;-84
2023/08/28 12:28:11;;;;;;;6.30;3.87;;;;;;;48.16;19.55;99071.50;5228376;34;33966;-84
2023/08/28 12:31:22;;;;;;;8.35;3.67;;;;;;;49.27;18.62;99066.25;5204388;33;33030;-85
2023/08/28 12:34:30;;;;;;;7.55;3.70;;;;;;;49.84;17.56;99055.91;5237683;33;33026;-85
2023/08/28 12:37:35;;;;;;;6.20;3.62;;;;;;;49.07;17.67;99053.16;5237715;34;33282;-86
2023/08/28 12:40:42;;;;;;;11.12;3.58;;;;;;;48.96;17.68;99039.31;5238147;34;33004;-86
2023/08/28 12:43:45;;;;;;;7.97;3.30;;;;;;;50.01;16.95;99042.06;5214088;34;32681;-85
2023/08/28 12:46:49;;;;;;;4.97;3.50;;;;;;;49.20;17.72;99036.62;5226130;34;33398;-86
2023/08/28 12:49:55;;;;;;;4.57;3.60;;;;;;;49.43;16.92;99038.09;5238186;34;33408;-86
2023/08/28 12:52:58;;;;;;;6.90;3.40;;;;;;;50.51;16.52;99025.34;5226347;34;33483;-86
2023/08/28 12:56:01;;;;;;;5.62;3.25;;;;;;;50.73;16.32;99015.72;5215293;34;33520;-85
2023/08/28 12:59:04;;;;;;;5.20;3.35;;;;;;;50.20;16.48;99013.38;5246942;34;34055;-86
2023/08/28 13:02:09;;;;;;;6.80;3.50;;;;;;;51.17;15.74;99010.19;5234142;33;34796;-85
2023/08/28 13:05:12;;;;;;;4.20;3.37;;;;;;;51.22;15.69;99003.78;5235225;34;33282;-85
2023/08/28 13:08:14;;;;;;;4.72;3.45;;;;;;;51.23;15.95;99010.28;5243973;34;33193;-85
2023/08/28 13:11:18;;;;;;;4.95;2.83;;;;;;;51.43;14.95;99007.59;5240951;34;33805;-87
2023/08/28 13:14:20;;;;;;;7.10;3.47;;;;;;;50.46;16.98;98999.44;5219520;34;34810;-88
2023/08/28 13:17:24;;;;;;;8.75;3.80;;;;;;;50.63;15.79;98992.03;5212699;34;33674;-89
2023/08/28 13:20:27;;;;;;;4.47;3.35;;;;;;;50.65;16.10;98992.34;5224937;34;34276;-85
2023/08/28 13:23:30;;;;;;;4.25;3.10;;;;;;;50.82;15.44;98987.00;5205044;34;33516;-84
2023/08/28 13:26:34;;;;;;;6.75;3.47;;;;;;;50.45;15.39;98984.31;5224323;34;33515;-85
2023/08/28 13:29:37;;;;;;;5.70;3.20;;;;;;;49.81;16.03;98990.25;5222873;34;34491;-85
2023/08/28 13:32:44;;;;;;;8.80;3.08;;;;;;;50.91;14.26;98975.47;5213960;34;32754;-84
2023/08/28 13:35:48;;;;;;;4.87;3.22;;;;;;;50.08;14.64;98969.34;5224635;34;34205;-83
2023/08/28 13:38:51;;;;;;;7.32;3.40;;;;;;;49.96;14.63;98967.50;5238061;33;33410;-83
2023/08/28 13:41:54;;;;;;;6.43;2.78;;;;;;;49.15;15.74;98950.75;5226003;34;33889;-83
2023/08/28 13:44:57;;;;;;;5.10;3.20;;;;;;;49.30;15.21;98954.56;5224772;34;32973;-83
2023/08/28 13:48:00;;;;;;;6.20;2.80;;;;;;;49.64;15.28;98959.16;5225661;34;33228;-85
2023/08/28 13:51:03;;;;;;;8.52;3.20;;;;;;;49.43;15.87;98943.72;5237413;34;33185;-84
2023/08/28 13:54:09;;;;;;;8.10;3.30;;;;;;;48.84;15.71;98945.12;5234423;33;34255;-84
2023/08/28 13:57:12;;;;;;;5.72;3.30;;;;;;;49.36;14.93;98940.41;5219835;33;34237;-84
2023/08/28 14:00:16;;;;;;;7.12;3.10;;;;;;;48.37;15.45;98942.16;5221594;34;33650;-84
2023/08/28 14:03:19;;;;;;;6.47;3.62;;;;;;;47.63;16.92;98934.50;5233407;33;32933;-85
2023/08/28 14:06:22;;;;;;;8.82;3.53;;;;;;;47.23;17.82;98926.59;5214430;33;34005;-84
2023/08/28 14:09:25;;;;;;;5.68;3.20;;;;;;;46.09;17.79;98929.19;5224525;33;34214;-82
2023/08/28 14:12:27;;;;;;;3.83;3.03;;;;;;;44.64;19.41;98929.19;5237447;33;33966;-82
2023/08/28 14:15:31;;;;;;;5.53;2.90;;;;;;;43.45;20.94;98925.41;5224665;34;33244;-82
2023/08/28 14:18:34;;;;;;;7.35;3.00;;;;;;;42.49;21.56;98919.47;5228343;34;33192;-82
2023/08/28 14:21:38;;;;;;;4.70;3.22;;;;;;;41.38;22.77;98927.44;5227070;34;34586;-82
2023/08/28 14:24:41;;;;;;;4.87;3.33;;;;;;;40.68;23.67;98924.91;5225726;34;35178;-81
2023/08/28 14:27:44;;;;;;;12.63;3.40;;;;;;;39.77;24.85;98922.28;5216974;34;33258;-81
2023/08/28 14:30:58;;;;;;;5.43;3.22;;;;;;;39.64;24.95;98925.56;5224369;34;33257;-81
2023/08/28 14:34:01;;;;;;;7.85;3.47;;;;;;;39.16;24.14;98922.47;5229811;34;33317;-81
2023/08/28 14:37:05;;;;;;;11.55;3.97;;;;;;;38.74;25.40;98924.13;5206362;34;33070;-81
2023/08/28 14:40:09;;;;;;;8.38;3.62;;;;;;;38.29;25.89;98918.91;5222557;34;32867;-81
2023/08/28 14:43:11;;;;;;;7.25;3.15;;;;;;;38.16;25.76;98916.88;5234981;33;33665;-82
2023/08/28 14:46:14;;;;;;;9.38;3.40;;;;;;;37.71;26.48;98905.13;5222783;34;34179;-81
2023/08/28 14:49:17;;;;;;;6.40;3.35;;;;;;;37.21;27.25;98909.28;5211970;34;33213;-81
2023/08/28 14:52:30;;;;;;;7.80;3.30;;;;;;;37.08;27.71;98907.19;5230745;34;33761;-82
2023/08/28 14:55:52;;;;;;;9.02;3.10;;;;;;;37.04;27.34;98907.19;5236757;34;33394;-82
2023/08/28 14:58:55;;;;;;;9.20;3.15;;;;;;;37.06;27.20;98904.78;5237248;34;33421;-86
2023/08/28 15:01:58;;;;;;;9.55;3.20;;;;;;;36.84;27.93;98900.22;5224605;34;34468;-85
2023/08/28 15:05:01;;;;;;;5.50;3.67;;;;;;;36.65;27.95;98899.28;5224321;34;33008;-82
2023/08/28 15:08:04;;;;;;;11.63;4.07;;;;;;;36.65;28.86;98893.69;5236860;34;33030;-82
2023/08/28 15:11:19;;;;;;;7.78;4.32;;;;;;;36.71;28.61;98897.72;5215054;34;33471;-82
2023/08/28 15:14:22;;;;;;;7.87;3.25;;;;;;;36.77;28.34;98886.97;5224453;34;33373;-82
2023/08/28 15:17:25;;;;;;;8.25;3.40;;;;;;;36.73;28.61;98886.91;5218515;34;208110;-81
2023/08/28 15:20:29;;;;;;;6.80;3.10;;;;;;;36.67;28.73;98880.06;5224236;34;33423;-81
2023/08/28 15:23:32;;;;;;;8.80;3.40;;;;;;;36.54;28.81;98881.59;5224333;34;33541;-82
2023/08/28 15:26:35;;;;;;;6.70;3.35;;;;;;;36.43;29.08;98870.25;5226240;34;33313;-82
2023/08/28 15:29:38;;;;;;;9.55;3.45;;;;;;;36.32;29.10;98870.16;5215731;34;32690;-82
2023/08/28 15:32:41;;;;;;;7.30;3.20;;;;;;;36.24;30.58;98870.47;5215890;34;33322;-82
2023/08/28 15:35:44;;;;;;;7.25;3.60;;;;;;;36.20;28.91;98866.84;5241315;33;33840;-81
2023/08/28 15:38:48;;;;;;;8.27;3.58;;;;;;;35.93;29.92;98868.97;5241112;34;33319;-82
2023/08/28 15:41:51;;;;;;;6.70;3.60;;;;;;;35.69;30.79;98862.75;5227724;34;32933;-82
2023/08/28 15:44:53;;;;;;;5.32;3.25;;;;;;;35.44;30.79;98862.41;5216412;34;34635;-81
2023/08/28 15:47:56;;;;;;;7.95;3.60;;;;;;;35.37;29.47;98862.34;5217815;34;34384;-80
2023/08/28 15:51:03;;;;;;;9.15;3.55;;;;;;;35.32;30.42;98859.88;5241997;34;33391;-81
2023/08/28 15:54:06;;;;;;;4.68;3.03;;;;;;;35.31;30.56;98852.69;5229529;34;33584;-81
2023/08/28 15:57:10;;;;;;;7.00;3.60;;;;;;;35.24;29.89;98853.38;5225417;34;33400;-81
2023/08/28 16:00:14;;;;;;;6.28;3.42;;;;;;;35.24;30.36;98850.56;5224667;34;33363;-81
2023/08/28 16:03:17;;;;;;;9.40;3.40;;;;;;;35.11;29.97;98849.22;5216921;34;34013;-81
2023/08/28 16:06:20;;;;;;;6.97;3.53;;;;;;;35.09;29.90;98857.19;5218767;34;33048;-82
2023/08/28 16:09:23;;;;;;;8.77;3.37;;;;;;;34.95;30.19;98858.56;5235889;34;34838;-83
2023/08/28 16:12:25;;;;;;;10.20;3.70;;;;;;;34.91;30.69;98856.91;5232687;34;34898;-83
2023/08/28 16:15:30;;;;;;;5.72;3.50;;;;;;;34.87;30.50;98862.47;5212931;34;33797;-83
2023/08/28 16:18:32;;;;;;;12.95;4.43;;;;;;;34.77;31.66;98860.31;5223553;34;33853;-83
2023/08/28 16:21:36;;;;;;;6.82;3.78;;;;;;;34.67;30.97;98858.16;5238736;34;33904;-83
2023/08/28 16:24:39;;;;;;;8.57;3.62;;;;;;;34.62;30.56;98853.69;5226255;34;33736;-83
2023/08/28 16:27:43;;;;;;;6.70;3.40;;;;;;;34.62;31.07;98850.09;5228500;34;33006;-84
2023/08/28 16:30:47;;;;;;;5.32;3.45;;;;;;;34.52;31.25;98843.16;5225531;34;33659;-83
2023/08/28 16:33:50;;;;;;;6.70;3.80;;;;;;;34.42;31.68;98847.38;5215917;34;34097;-83
2023/08/28 16:36:53;;;;;;;8.35;3.83;;;;;;;34.28;31.73;98841.53;5200601;34;33336;-84
2023/08/28 16:39:56;;;;;;;7.97;3.40;;;;;;;34.28;31.47;98838.75;5211637;34;33276;-83
2023/08/28 16:42:58;;;;;;;9.93;3.60;;;;;;;34.13;31.88;98839.72;5211518;34;33146;-83
2023/08/28 16:46:02;;;;;;;7.65;3.65;;;;;;;34.01;32.50;98833.09;5222822;34;33394;-84
2023/08/28 16:49:05;;;;;;;10.82;4.03;;;;;;;33.94;32.29;98849.75;5235369;34;32847;-83
2023/08/28 16:52:08;;;;;;;6.57;3.85;;;;;;;33.83;32.50;98851.53;5222688;34;33029;-83
2023/08/28 16:55:11;;;;;;;10.85;4.00;;;;;;;33.67;33.26;98842.44;5211621;34;34239;-83
2023/08/28 16:58:13;;;;;;;9.00;3.78;;;;;;;33.52;33.08;98844.97;5202546;34;34152;-83
2023/08/28 17:01:16;;;;;;;6.85;3.55;;;;;;;33.37;33.56;98829.88;5225631;33;34306;-83
2023/08/28 17:04:20;;;;;;;6.57;3.58;;;;;;;33.33;33.69;98834.59;5225216;33;34409;-83
2023/08/28 17:07:24;;;;;;;8.93;3.85;;;;;;;33.27;33.80;98827.72;5225348;34;33120;-83
2023/08/28 17:10:29;;;;;;;6.18;3.80;;;;;;;33.21;33.83;98820.81;5225656;34;33338;-87
2023/08/28 17:13:32;;;;;;;12.95;3.97;;;;;;;33.05;34.09;98826.44;5225431;34;33537;-87
2023/08/28 17:16:35;;;;;;;7.15;3.90;;;;;;;32.85;34.59;98830.34;5225277;34;33618;-87
2023/08/28 17:19:38;;;;;;;11.38;3.72;;;;;;;32.72;34.80;98833.28;5225396;34;34945;-84
2023/08/28 17:22:43;;;;;;;9.20;3.67;;;;;;;32.60;35.33;98829.81;5225253;34;33250;-83
2023/08/28 17:25:46;;;;;;;7.35;4.00;;;;;;;32.42;35.96;98829.38;5237679;34;33571;-83
2023/08/28 17:28:49;;;;;;;7.22;3.35;;;;;;;32.27;35.83;98831.81;5225617;34;33093;-83
2023/08/28 17:31:52;;;;;;;14.85;3.92;;;;;;;32.20;36.18;98823.25;5214241;34;32900;-83
2023/08/28 17:34:55;;;;;;;7.70;3.90;;;;;;;32.07;36.69;98818.97;5225344;34;32943;-83
2023/08/28 17:37:58;;;;;;;9.15;3.95;;;;;;;31.91;36.99;98820.94;5237851;34;33059;-83
2023/08/28 17:41:01;;;;;;;7.22;4.07;;;;;;;31.84;36.80;98819.56;5237737;34;32918;-84
2023/08/28 17:44:04;;;;;;;9.55;3.90;;;;;;;31.79;37.14;98814.25;5224988;34;33463;-83
